sensor_id;sensor_type;location;lat;lon;timestamp;P1;durP1;ratioP1;P2;durP2;ratioP2
14528;SDS011;7351;51.194;4.098;2023-03-24T00:00:06;3.70;;;2.63;;
14528;SDS011;7351;51.194;4.098;2023-03-24T00:02:37;3.43;;;2.77;;
14528;SDS011;7351;51.194;4.098;2023-03-24T00:05:06;3.80;;;3.50;;
14528;SDS011;7351;51.194;4.098;2023-03-24T00:07:35;3.10;;;2.90;;
14528;SDS011;7351;51.194;4.098;2023-03-24T00:10:04;4.00;;;3.10;;
14528;SDS011;7351;51.194;4.098;2023-03-24T00:12:33;4.43;;;3.20;;
14528;SDS011;7351;51.194;4.098;2023-03-24T00:15:03;3.20;;;2.90;;
14528;SDS011;7351;51.194;4.098;2023-03-24T00:17:32;4.20;;;3.10;;
14528;SDS011;7351;51.194;4.098;2023-03-24T00:20:02;3.37;;;3.07;;
14528;SDS011;7351;51.194;4.098;2023-03-24T00:22:36;2.60;;;2.40;;
14528;SDS011;7351;51.194;4.098;2023-03-24T00:25:06;3.80;;;3.00;;
14528;SDS011;7351;51.194;4.098;2023-03-24T00:27:34;2.80;;;2.60;;
14528;SDS011;7351;51.194;4.098;2023-03-24T00:30:03;3.57;;;2.50;;
14528;SDS011;7351;51.194;4.098;2023-03-24T00:32:32;2.43;;;2.23;;
14528;SDS011;7351;51.194;4.098;2023-03-24T00:35:02;2.93;;;2.73;;
14528;SDS011;7351;51.194;4.098;2023-03-24T00:37:30;3.57;;;2.47;;
14528;SDS011;7351;51.194;4.098;2023-03-24T00:39:57;2.70;;;2.50;;
14528;SDS011;7351;51.194;4.098;2023-03-24T00:42:25;3.07;;;2.80;;
14528;SDS011;7351;51.194;4.098;2023-03-24T00:44:52;3.17;;;2.73;;
14528;SDS011;7351;51.194;4.098;2023-03-24T00:47:19;3.73;;;2.90;;
14528;SDS011;7351;51.194;4.098;2023-03-24T00:49:50;2.80;;;2.60;;
14528;SDS011;7351;51.194;4.098;2023-03-24T00:52:20;2.53;;;2.27;;
14528;SDS011;7351;51.194;4.098;2023-03-24T00:54:49;3.97;;;2.10;;
14528;SDS011;7351;51.194;4.098;2023-03-24T00:57:19;2.87;;;2.50;;
14528;SDS011;7351;51.194;4.098;2023-03-24T00:59:46;2.73;;;2.53;;
14528;SDS011;7351;51.194;4.098;2023-03-24T01:02:14;3.07;;;2.80;;
14528;SDS011;7351;51.194;4.098;2023-03-24T01:04:43;3.63;;;2.90;;
14528;SDS011;7351;51.194;4.098;2023-03-24T01:07:12;3.40;;;2.30;;
14528;SDS011;7351;51.194;4.098;2023-03-24T01:09:43;3.77;;;2.60;;
14528;SDS011;7351;51.194;4.098;2023-03-24T01:12:16;3.23;;;2.43;;
14528;SDS011;7351;51.194;4.098;2023-03-24T01:14:44;2.80;;;2.60;;
14528;SDS011;7351;51.194;4.098;2023-03-24T01:17:11;3.33;;;3.00;;
14528;SDS011;7351;51.194;4.098;2023-03-24T01:19:38;2.80;;;2.60;;
14528;SDS011;7351;51.194;4.098;2023-03-24T01:22:06;2.73;;;2.53;;
14528;SDS011;7351;51.194;4.098;2023-03-24T01:24:34;2.33;;;2.13;;
14528;SDS011;7351;51.194;4.098;2023-03-24T01:27:02;2.97;;;2.67;;
14528;SDS011;7351;51.194;4.098;2023-03-24T01:29:30;3.20;;;2.90;;
14528;SDS011;7351;51.194;4.098;2023-03-24T01:31:57;3.93;;;2.33;;
14528;SDS011;7351;51.194;4.098;2023-03-24T01:34:24;2.40;;;2.20;;
14528;SDS011;7351;51.194;4.098;2023-03-24T01:36:51;2.37;;;2.10;;
14528;SDS011;7351;51.194;4.098;2023-03-24T01:39:18;3.20;;;2.90;;
14528;SDS011;7351;51.194;4.098;2023-03-24T01:41:45;2.57;;;2.37;;
14528;SDS011;7351;51.194;4.098;2023-03-24T01:44:24;3.90;;;3.27;;
14528;SDS011;7351;51.194;4.098;2023-03-24T01:46:57;2.30;;;2.20;;
14528;SDS011;7351;51.194;4.098;2023-03-24T01:49:24;2.57;;;2.37;;
14528;SDS011;7351;51.194;4.098;2023-03-24T01:51:56;2.90;;;2.67;;
14528;SDS011;7351;51.194;4.098;2023-03-24T01:54:27;3.33;;;3.13;;
14528;SDS011;7351;51.194;4.098;2023-03-24T01:56:58;2.83;;;2.53;;
14528;SDS011;7351;51.194;4.098;2023-03-24T01:59:31;2.50;;;2.30;;
14528;SDS011;7351;51.194;4.098;2023-03-24T02:02:02;2.80;;;2.60;;
14528;SDS011;7351;51.194;4.098;2023-03-24T02:04:31;3.20;;;2.87;;
14528;SDS011;7351;51.194;4.098;2023-03-24T02:07:09;2.57;;;2.37;;
14528;SDS011;7351;51.194;4.098;2023-03-24T02:09:41;2.90;;;2.30;;
14528;SDS011;7351;51.194;4.098;2023-03-24T02:12:08;2.57;;;2.37;;
14528;SDS011;7351;51.194;4.098;2023-03-24T02:14:37;2.77;;;2.57;;
14528;SDS011;7351;51.194;4.098;2023-03-24T02:20:19;2.33;;;2.13;;
14528;SDS011;7351;51.194;4.098;2023-03-24T02:32:40;2.10;;;1.90;;
14528;SDS011;7351;51.194;4.098;2023-03-24T02:35:29;4.23;;;2.07;;
14528;SDS011;7351;51.194;4.098;2023-03-24T02:38:26;2.63;;;2.30;;
14528;SDS011;7351;51.194;4.098;2023-03-24T02:41:13;3.30;;;1.73;;
14528;SDS011;7351;51.194;4.098;2023-03-24T02:43:47;2.87;;;2.30;;
14528;SDS011;7351;51.194;4.098;2023-03-24T02:46:22;2.43;;;2.20;;
14528;SDS011;7351;51.194;4.098;2023-03-24T02:48:56;2.47;;;2.23;;
14528;SDS011;7351;51.194;4.098;2023-03-24T02:51:34;2.33;;;2.00;;
14528;SDS011;7351;51.194;4.098;2023-03-24T02:54:06;2.40;;;1.70;;
14528;SDS011;7351;51.194;4.098;2023-03-24T02:56:38;2.07;;;1.70;;
14528;SDS011;7351;51.194;4.098;2023-03-24T02:59:10;1.80;;;1.60;;
14528;SDS011;7351;51.194;4.098;2023-03-24T03:01:43;2.03;;;1.83;;
14528;SDS011;7351;51.194;4.098;2023-03-24T03:04:19;3.57;;;1.70;;
14528;SDS011;7351;51.194;4.098;2023-03-24T03:06:51;3.83;;;2.20;;
14528;SDS011;7351;51.194;4.098;2023-03-24T03:09:23;2.97;;;1.87;;
14528;SDS011;7351;51.194;4.098;2023-03-24T03:11:53;4.67;;;1.90;;
14528;SDS011;7351;51.194;4.098;2023-03-24T03:14:25;2.23;;;2.00;;
14528;SDS011;7351;51.194;4.098;2023-03-24T03:16:57;1.83;;;1.63;;
14528;SDS011;7351;51.194;4.098;2023-03-24T03:19:29;3.97;;;1.83;;
14528;SDS011;7351;51.194;4.098;2023-03-24T03:21:58;2.23;;;1.77;;
14528;SDS011;7351;51.194;4.098;2023-03-24T03:24:29;2.23;;;1.50;;
14528;SDS011;7351;51.194;4.098;2023-03-24T03:27:02;2.70;;;1.80;;
14528;SDS011;7351;51.194;4.098;2023-03-24T03:29:35;1.93;;;1.70;;
14528;SDS011;7351;51.194;4.098;2023-03-24T03:32:05;3.33;;;1.80;;
14528;SDS011;7351;51.194;4.098;2023-03-24T03:34:36;2.73;;;1.87;;
14528;SDS011;7351;51.194;4.098;2023-03-24T03:37:08;2.47;;;2.27;;
14528;SDS011;7351;51.194;4.098;2023-03-24T03:39:46;2.20;;;2.00;;
14528;SDS011;7351;51.194;4.098;2023-03-24T03:42:19;2.43;;;1.87;;
14528;SDS011;7351;51.194;4.098;2023-03-24T03:44:47;2.57;;;1.50;;
14528;SDS011;7351;51.194;4.098;2023-03-24T03:47:14;2.73;;;1.37;;
14528;SDS011;7351;51.194;4.098;2023-03-24T03:49:43;6.50;;;2.13;;
14528;SDS011;7351;51.194;4.098;2023-03-24T03:52:11;2.67;;;2.13;;
14528;SDS011;7351;51.194;4.098;2023-03-24T03:54:39;4.80;;;2.00;;
14528;SDS011;7351;51.194;4.098;2023-03-24T03:57:08;2.83;;;2.30;;
14528;SDS011;7351;51.194;4.098;2023-03-24T03:59:37;3.80;;;1.80;;
14528;SDS011;7351;51.194;4.098;2023-03-24T04:02:08;2.33;;;1.60;;
14528;SDS011;7351;51.194;4.098;2023-03-24T04:08:03;6.40;;;2.37;;
14528;SDS011;7351;51.194;4.098;2023-03-24T04:10:50;3.07;;;1.80;;
14528;SDS011;7351;51.194;4.098;2023-03-24T04:13:31;3.90;;;1.87;;
14528;SDS011;7351;51.194;4.098;2023-03-24T04:16:12;3.27;;;2.13;;
14528;SDS011;7351;51.194;4.098;2023-03-24T04:18:57;3.53;;;1.87;;
14528;SDS011;7351;51.194;4.098;2023-03-24T04:24:36;4.70;;;1.83;;
14528;SDS011;7351;51.194;4.098;2023-03-24T04:27:09;2.67;;;1.60;;
14528;SDS011;7351;51.194;4.098;2023-03-24T04:29:43;4.10;;;1.90;;
14528;SDS011;7351;51.194;4.098;2023-03-24T04:32:20;2.87;;;2.00;;
14528;SDS011;7351;51.194;4.098;2023-03-24T04:34:55;3.50;;;2.07;;
14528;SDS011;7351;51.194;4.098;2023-03-24T04:37:26;4.50;;;2.53;;
14528;SDS011;7351;51.194;4.098;2023-03-24T04:39:58;4.60;;;2.40;;
14528;SDS011;7351;51.194;4.098;2023-03-24T04:42:31;5.73;;;2.20;;
14528;SDS011;7351;51.194;4.098;2023-03-24T04:45:01;4.47;;;2.27;;
14528;SDS011;7351;51.194;4.098;2023-03-24T04:47:31;4.30;;;2.33;;
14528;SDS011;7351;51.194;4.098;2023-03-24T04:50:04;4.00;;;1.80;;
14528;SDS011;7351;51.194;4.098;2023-03-24T04:52:35;3.93;;;2.20;;
14528;SDS011;7351;51.194;4.098;2023-03-24T04:55:02;4.50;;;2.00;;
14528;SDS011;7351;51.194;4.098;2023-03-24T04:57:41;3.40;;;2.33;;
14528;SDS011;7351;51.194;4.098;2023-03-24T05:00:09;3.83;;;2.13;;
14528;SDS011;7351;51.194;4.098;2023-03-24T05:02:38;4.03;;;2.30;;
14528;SDS011;7351;51.194;4.098;2023-03-24T05:05:06;5.43;;;2.80;;
14528;SDS011;7351;51.194;4.098;2023-03-24T05:07:33;4.57;;;2.80;;
14528;SDS011;7351;51.194;4.098;2023-03-24T05:10:00;6.93;;;2.73;;
14528;SDS011;7351;51.194;4.098;2023-03-24T05:12:27;4.47;;;2.80;;
14528;SDS011;7351;51.194;4.098;2023-03-24T05:14:54;5.77;;;2.07;;
14528;SDS011;7351;51.194;4.098;2023-03-24T05:17:21;3.03;;;2.43;;
14528;SDS011;7351;51.194;4.098;2023-03-24T05:19:49;7.40;;;3.23;;
14528;SDS011;7351;51.194;4.098;2023-03-24T05:22:16;5.33;;;2.33;;
14528;SDS011;7351;51.194;4.098;2023-03-24T05:24:43;8.07;;;3.17;;
14528;SDS011;7351;51.194;4.098;2023-03-24T05:27:10;6.40;;;3.00;;
14528;SDS011;7351;51.194;4.098;2023-03-24T05:29:37;6.70;;;2.90;;
14528;SDS011;7351;51.194;4.098;2023-03-24T05:32:04;5.27;;;2.90;;
14528;SDS011;7351;51.194;4.098;2023-03-24T05:34:31;5.73;;;2.23;;
14528;SDS011;7351;51.194;4.098;2023-03-24T05:37:00;6.40;;;2.93;;
14528;SDS011;7351;51.194;4.098;2023-03-24T05:39:27;6.17;;;2.80;;
14528;SDS011;7351;51.194;4.098;2023-03-24T05:41:54;6.40;;;3.00;;
14528;SDS011;7351;51.194;4.098;2023-03-24T05:44:20;3.67;;;2.37;;
14528;SDS011;7351;51.194;4.098;2023-03-24T05:46:48;5.00;;;2.80;;
14528;SDS011;7351;51.194;4.098;2023-03-24T05:49:15;5.10;;;2.73;;
14528;SDS011;7351;51.194;4.098;2023-03-24T05:51:42;5.83;;;3.00;;
14528;SDS011;7351;51.194;4.098;2023-03-24T05:54:10;7.60;;;3.03;;
14528;SDS011;7351;51.194;4.098;2023-03-24T05:56:37;3.73;;;2.03;;
14528;SDS011;7351;51.194;4.098;2023-03-24T05:59:04;4.83;;;2.27;;
14528;SDS011;7351;51.194;4.098;2023-03-24T06:01:31;5.70;;;2.17;;
14528;SDS011;7351;51.194;4.098;2023-03-24T06:03:58;7.30;;;2.70;;
14528;SDS011;7351;51.194;4.098;2023-03-24T06:06:25;7.33;;;3.00;;
14528;SDS011;7351;51.194;4.098;2023-03-24T06:08:52;6.20;;;3.13;;
14528;SDS011;7351;51.194;4.098;2023-03-24T06:11:21;5.40;;;2.23;;
14528;SDS011;7351;51.194;4.098;2023-03-24T06:13:48;7.17;;;2.03;;
14528;SDS011;7351;51.194;4.098;2023-03-24T06:16:15;3.97;;;2.00;;
14528;SDS011;7351;51.194;4.098;2023-03-24T06:18:42;5.57;;;2.80;;
14528;SDS011;7351;51.194;4.098;2023-03-24T06:21:17;4.13;;;2.13;;
14528;SDS011;7351;51.194;4.098;2023-03-24T06:23:44;10.67;;;2.93;;
14528;SDS011;7351;51.194;4.098;2023-03-24T06:26:11;7.13;;;2.73;;
14528;SDS011;7351;51.194;4.098;2023-03-24T06:28:42;5.17;;;2.20;;
14528;SDS011;7351;51.194;4.098;2023-03-24T06:31:09;3.83;;;2.57;;
14528;SDS011;7351;51.194;4.098;2023-03-24T06:33:39;6.00;;;2.50;;
14528;SDS011;7351;51.194;4.098;2023-03-24T06:36:06;5.67;;;2.77;;
14528;SDS011;7351;51.194;4.098;2023-03-24T06:38:39;14.23;;;3.87;;
14528;SDS011;7351;51.194;4.098;2023-03-24T06:41:07;5.53;;;3.00;;
14528;SDS011;7351;51.194;4.098;2023-03-24T06:43:34;7.90;;;2.80;;
14528;SDS011;7351;51.194;4.098;2023-03-24T06:46:02;5.00;;;2.43;;
14528;SDS011;7351;51.194;4.098;2023-03-24T06:48:30;5.27;;;2.33;;
14528;SDS011;7351;51.194;4.098;2023-03-24T06:50:57;6.40;;;2.70;;
14528;SDS011;7351;51.194;4.098;2023-03-24T06:53:24;6.83;;;3.00;;
14528;SDS011;7351;51.194;4.098;2023-03-24T06:55:52;6.90;;;2.73;;
14528;SDS011;7351;51.194;4.098;2023-03-24T06:58:20;4.17;;;2.47;;
14528;SDS011;7351;51.194;4.098;2023-03-24T07:00:47;3.43;;;2.17;;
14528;SDS011;7351;51.194;4.098;2023-03-24T07:03:16;4.83;;;3.47;;
14528;SDS011;7351;51.194;4.098;2023-03-24T07:05:43;7.73;;;2.73;;
14528;SDS011;7351;51.194;4.098;2023-03-24T07:08:11;7.43;;;3.70;;
14528;SDS011;7351;51.194;4.098;2023-03-24T07:10:38;6.87;;;3.20;;
14528;SDS011;7351;51.194;4.098;2023-03-24T07:13:05;9.07;;;3.47;;
14528;SDS011;7351;51.194;4.098;2023-03-24T07:15:33;6.60;;;2.67;;
14528;SDS011;7351;51.194;4.098;2023-03-24T07:18:00;7.83;;;2.77;;
14528;SDS011;7351;51.194;4.098;2023-03-24T07:20:29;5.50;;;3.17;;
14528;SDS011;7351;51.194;4.098;2023-03-24T07:22:56;9.13;;;3.77;;
14528;SDS011;7351;51.194;4.098;2023-03-24T07:25:23;12.03;;;3.30;;
14528;SDS011;7351;51.194;4.098;2023-03-24T07:27:52;9.50;;;3.23;;
14528;SDS011;7351;51.194;4.098;2023-03-24T07:30:20;7.10;;;2.97;;
14528;SDS011;7351;51.194;4.098;2023-03-24T07:32:47;10.20;;;3.60;;
14528;SDS011;7351;51.194;4.098;2023-03-24T07:35:14;11.20;;;3.50;;
14528;SDS011;7351;51.194;4.098;2023-03-24T07:37:43;11.80;;;4.27;;
14528;SDS011;7351;51.194;4.098;2023-03-24T07:40:11;11.33;;;3.10;;
14528;SDS011;7351;51.194;4.098;2023-03-24T07:42:40;9.90;;;3.60;;
14528;SDS011;7351;51.194;4.098;2023-03-24T07:45:08;8.53;;;3.63;;
14528;SDS011;7351;51.194;4.098;2023-03-24T07:47:36;9.77;;;3.67;;
14528;SDS011;7351;51.194;4.098;2023-03-24T07:50:05;18.33;;;4.53;;
14528;SDS011;7351;51.194;4.098;2023-03-24T07:52:34;10.50;;;3.60;;
14528;SDS011;7351;51.194;4.098;2023-03-24T07:55:03;11.37;;;3.10;;
14528;SDS011;7351;51.194;4.098;2023-03-24T07:57:30;8.23;;;3.20;;
14528;SDS011;7351;51.194;4.098;2023-03-24T07:59:59;7.30;;;3.10;;
14528;SDS011;7351;51.194;4.098;2023-03-24T08:02:26;7.87;;;3.53;;
14528;SDS011;7351;51.194;4.098;2023-03-24T08:04:53;14.10;;;4.33;;
14528;SDS011;7351;51.194;4.098;2023-03-24T08:07:20;8.63;;;3.83;;
14528;SDS011;7351;51.194;4.098;2023-03-24T08:09:48;12.83;;;3.93;;
14528;SDS011;7351;51.194;4.098;2023-03-24T08:12:17;8.03;;;3.83;;
14528;SDS011;7351;51.194;4.098;2023-03-24T08:14:44;7.83;;;3.67;;
14528;SDS011;7351;51.194;4.098;2023-03-24T08:17:11;8.83;;;4.20;;
14528;SDS011;7351;51.194;4.098;2023-03-24T08:19:37;7.13;;;2.90;;
14528;SDS011;7351;51.194;4.098;2023-03-24T08:22:05;11.77;;;4.03;;
14528;SDS011;7351;51.194;4.098;2023-03-24T08:24:32;9.77;;;3.37;;
14528;SDS011;7351;51.194;4.098;2023-03-24T08:27:00;13.67;;;4.53;;
14528;SDS011;7351;51.194;4.098;2023-03-24T08:29:31;14.17;;;3.80;;
14528;SDS011;7351;51.194;4.098;2023-03-24T08:31:59;14.10;;;4.50;;
14528;SDS011;7351;51.194;4.098;2023-03-24T08:34:26;15.60;;;3.80;;
14528;SDS011;7351;51.194;4.098;2023-03-24T08:36:53;9.17;;;4.00;;
14528;SDS011;7351;51.194;4.098;2023-03-24T08:39:20;12.17;;;4.70;;
14528;SDS011;7351;51.194;4.098;2023-03-24T08:41:48;14.33;;;4.40;;
14528;SDS011;7351;51.194;4.098;2023-03-24T08:44:15;10.33;;;4.27;;
14528;SDS011;7351;51.194;4.098;2023-03-24T08:46:44;13.07;;;4.03;;
14528;SDS011;7351;51.194;4.098;2023-03-24T08:49:11;13.77;;;4.40;;
14528;SDS011;7351;51.194;4.098;2023-03-24T08:51:38;10.20;;;3.83;;
14528;SDS011;7351;51.194;4.098;2023-03-24T08:54:05;7.10;;;3.70;;
14528;SDS011;7351;51.194;4.098;2023-03-24T08:56:33;8.93;;;3.47;;
14528;SDS011;7351;51.194;4.098;2023-03-24T08:59:00;11.47;;;3.40;;
14528;SDS011;7351;51.194;4.098;2023-03-24T09:01:28;11.73;;;4.27;;
14528;SDS011;7351;51.194;4.098;2023-03-24T09:03:57;7.03;;;3.97;;
14528;SDS011;7351;51.194;4.098;2023-03-24T09:06:23;14.77;;;4.03;;
14528;SDS011;7351;51.194;4.098;2023-03-24T09:08:51;8.83;;;3.23;;
14528;SDS011;7351;51.194;4.098;2023-03-24T09:11:19;10.20;;;3.60;;
14528;SDS011;7351;51.194;4.098;2023-03-24T09:13:47;8.97;;;3.53;;
14528;SDS011;7351;51.194;4.098;2023-03-24T09:16:15;6.40;;;3.43;;
14528;SDS011;7351;51.194;4.098;2023-03-24T09:18:42;8.27;;;3.37;;
14528;SDS011;7351;51.194;4.098;2023-03-24T09:21:11;9.40;;;3.40;;
14528;SDS011;7351;51.194;4.098;2023-03-24T09:23:38;6.90;;;4.03;;
14528;SDS011;7351;51.194;4.098;2023-03-24T09:26:05;7.10;;;3.63;;
14528;SDS011;7351;51.194;4.098;2023-03-24T09:28:32;6.90;;;3.43;;
14528;SDS011;7351;51.194;4.098;2023-03-24T09:31:00;7.73;;;3.80;;
14528;SDS011;7351;51.194;4.098;2023-03-24T09:33:29;7.83;;;4.20;;
14528;SDS011;7351;51.194;4.098;2023-03-24T09:35:59;8.27;;;3.80;;
14528;SDS011;7351;51.194;4.098;2023-03-24T09:38:28;7.87;;;3.37;;
14528;SDS011;7351;51.194;4.098;2023-03-24T09:40:58;7.87;;;4.03;;
14528;SDS011;7351;51.194;4.098;2023-03-24T09:43:30;10.50;;;3.80;;
14528;SDS011;7351;51.194;4.098;2023-03-24T09:46:03;8.67;;;3.97;;
14528;SDS011;7351;51.194;4.098;2023-03-24T09:48:35;7.50;;;3.67;;
14528;SDS011;7351;51.194;4.098;2023-03-24T09:51:08;7.43;;;2.80;;
14528;SDS011;7351;51.194;4.098;2023-03-24T09:53:41;10.03;;;4.10;;
14528;SDS011;7351;51.194;4.098;2023-03-24T09:56:16;6.23;;;3.27;;
14528;SDS011;7351;51.194;4.098;2023-03-24T09:58:47;8.17;;;3.40;;
14528;SDS011;7351;51.194;4.098;2023-03-24T10:01:18;9.63;;;3.27;;
14528;SDS011;7351;51.194;4.098;2023-03-24T10:03:45;8.63;;;3.67;;
14528;SDS011;7351;51.194;4.098;2023-03-24T10:06:15;9.53;;;3.50;;
14528;SDS011;7351;51.194;4.098;2023-03-24T10:08:50;11.33;;;4.37;;
14528;SDS011;7351;51.194;4.098;2023-03-24T10:11:24;7.40;;;3.70;;
14528;SDS011;7351;51.194;4.098;2023-03-24T10:13:59;10.83;;;4.03;;
14528;SDS011;7351;51.194;4.098;2023-03-24T10:16:37;7.40;;;4.10;;
14528;SDS011;7351;51.194;4.098;2023-03-24T10:19:17;8.83;;;3.30;;
14528;SDS011;7351;51.194;4.098;2023-03-24T10:21:52;9.40;;;3.70;;
14528;SDS011;7351;51.194;4.098;2023-03-24T10:24:26;8.60;;;4.50;;
14528;SDS011;7351;51.194;4.098;2023-03-24T10:26:59;10.03;;;3.83;;
14528;SDS011;7351;51.194;4.098;2023-03-24T10:29:32;11.63;;;4.40;;
14528;SDS011;7351;51.194;4.098;2023-03-24T10:32:01;9.53;;;3.20;;
14528;SDS011;7351;51.194;4.098;2023-03-24T10:34:36;10.70;;;3.73;;
14528;SDS011;7351;51.194;4.098;2023-03-24T10:37:04;9.77;;;3.60;;
14528;SDS011;7351;51.194;4.098;2023-03-24T10:39:33;6.93;;;3.77;;
14528;SDS011;7351;51.194;4.098;2023-03-24T10:42:00;8.43;;;3.97;;
14528;SDS011;7351;51.194;4.098;2023-03-24T10:44:28;9.40;;;3.40;;
14528;SDS011;7351;51.194;4.098;2023-03-24T10:46:56;10.87;;;4.00;;
14528;SDS011;7351;51.194;4.098;2023-03-24T10:49:27;10.47;;;3.70;;
14528;SDS011;7351;51.194;4.098;2023-03-24T10:51:59;7.83;;;3.07;;
14528;SDS011;7351;51.194;4.098;2023-03-24T10:54:28;8.30;;;3.47;;
14528;SDS011;7351;51.194;4.098;2023-03-24T10:57:01;8.80;;;3.47;;
14528;SDS011;7351;51.194;4.098;2023-03-24T10:59:30;8.43;;;3.10;;
14528;SDS011;7351;51.194;4.098;2023-03-24T11:02:02;8.40;;;3.70;;
14528;SDS011;7351;51.194;4.098;2023-03-24T11:04:42;5.13;;;3.03;;
14528;SDS011;7351;51.194;4.098;2023-03-24T11:07:15;9.27;;;3.27;;
14528;SDS011;7351;51.194;4.098;2023-03-24T11:09:45;8.30;;;4.40;;
14528;SDS011;7351;51.194;4.098;2023-03-24T11:12:23;18.73;;;16.90;;
14528;SDS011;7351;51.194;4.098;2023-03-24T11:14:51;54.77;;;49.07;;
14528;SDS011;7351;51.194;4.098;2023-03-24T11:17:25;67.30;;;60.67;;
14528;SDS011;7351;51.194;4.098;2023-03-24T11:19:53;67.73;;;60.67;;
14528;SDS011;7351;51.194;4.098;2023-03-24T11:22:21;60.30;;;54.87;;
14528;SDS011;7351;51.194;4.098;2023-03-24T11:24:51;57.30;;;51.40;;
14528;SDS011;7351;51.194;4.098;2023-03-24T11:27:22;54.97;;;49.40;;
14528;SDS011;7351;51.194;4.098;2023-03-24T11:29:51;57.20;;;51.33;;
14528;SDS011;7351;51.194;4.098;2023-03-24T11:32:21;55.43;;;48.23;;
14528;SDS011;7351;51.194;4.098;2023-03-24T11:34:54;77.37;;;53.27;;
14528;SDS011;7351;51.194;4.098;2023-03-24T11:37:29;63.20;;;51.50;;
14528;SDS011;7351;51.194;4.098;2023-03-24T11:40:16;64.37;;;47.50;;
14528;SDS011;7351;51.194;4.098;2023-03-24T11:42:49;60.73;;;42.47;;
14528;SDS011;7351;51.194;4.098;2023-03-24T11:45:19;56.47;;;39.33;;
14528;SDS011;7351;51.194;4.098;2023-03-24T11:48:03;41.10;;;33.57;;
14528;SDS011;7351;51.194;4.098;2023-03-24T11:50:37;43.30;;;33.07;;
14528;SDS011;7351;51.194;4.098;2023-03-24T11:53:06;42.40;;;30.27;;
14528;SDS011;7351;51.194;4.098;2023-03-24T11:55:41;41.33;;;28.70;;
14528;SDS011;7351;51.194;4.098;2023-03-24T11:58:16;37.43;;;26.13;;
14528;SDS011;7351;51.194;4.098;2023-03-24T12:00:54;35.37;;;26.23;;
14528;SDS011;7351;51.194;4.098;2023-03-24T12:06:36;34.60;;;22.70;;
14528;SDS011;7351;51.194;4.098;2023-03-24T12:09:15;33.20;;;21.97;;
14528;SDS011;7351;51.194;4.098;2023-03-24T12:11:59;30.13;;;19.80;;
14528;SDS011;7351;51.194;4.098;2023-03-24T12:14:44;30.53;;;19.00;;
14528;SDS011;7351;51.194;4.098;2023-03-24T12:17:27;26.70;;;18.30;;
14528;SDS011;7351;51.194;4.098;2023-03-24T12:20:03;32.17;;;18.20;;
14528;SDS011;7351;51.194;4.098;2023-03-24T12:22:42;21.87;;;13.40;;
14528;SDS011;7351;51.194;4.098;2023-03-24T12:25:24;25.30;;;15.63;;
14528;SDS011;7351;51.194;4.098;2023-03-24T12:28:12;20.07;;;12.53;;
14528;SDS011;7351;51.194;4.098;2023-03-24T12:30:53;24.67;;;12.73;;
14528;SDS011;7351;51.194;4.098;2023-03-24T12:33:28;16.50;;;11.57;;
14528;SDS011;7351;51.194;4.098;2023-03-24T12:36:10;18.30;;;12.23;;
14528;SDS011;7351;51.194;4.098;2023-03-24T12:38:49;15.87;;;10.97;;
14528;SDS011;7351;51.194;4.098;2023-03-24T12:41:36;15.07;;;9.50;;
14528;SDS011;7351;51.194;4.098;2023-03-24T12:44:17;17.53;;;11.67;;
14528;SDS011;7351;51.194;4.098;2023-03-24T12:46:57;14.20;;;9.97;;
14528;SDS011;7351;51.194;4.098;2023-03-24T12:52:30;10.30;;;7.77;;
14528;SDS011;7351;51.194;4.098;2023-03-24T12:55:07;12.93;;;8.80;;
14528;SDS011;7351;51.194;4.098;2023-03-24T12:57:40;12.53;;;8.33;;
14528;SDS011;7351;51.194;4.098;2023-03-24T13:00:09;12.23;;;7.50;;
14528;SDS011;7351;51.194;4.098;2023-03-24T13:02:44;13.67;;;8.70;;
14528;SDS011;7351;51.194;4.098;2023-03-24T13:05:17;12.47;;;7.37;;
14528;SDS011;7351;51.194;4.098;2023-03-24T13:07:47;16.70;;;8.63;;
14528;SDS011;7351;51.194;4.098;2023-03-24T13:10:19;10.20;;;6.70;;
14528;SDS011;7351;51.194;4.098;2023-03-24T13:12:51;11.37;;;6.83;;
14528;SDS011;7351;51.194;4.098;2023-03-24T13:15:21;11.60;;;5.90;;
14528;SDS011;7351;51.194;4.098;2023-03-24T13:17:59;12.40;;;7.03;;
14528;SDS011;7351;51.194;4.098;2023-03-24T13:20:32;10.50;;;6.77;;
14528;SDS011;7351;51.194;4.098;2023-03-24T13:23:09;13.00;;;6.20;;
14528;SDS011;7351;51.194;4.098;2023-03-24T13:25:51;10.10;;;6.13;;
14528;SDS011;7351;51.194;4.098;2023-03-24T13:28:27;13.70;;;6.97;;
14528;SDS011;7351;51.194;4.098;2023-03-24T13:30:57;13.00;;;5.93;;
14528;SDS011;7351;51.194;4.098;2023-03-24T13:33:30;10.17;;;5.10;;
14528;SDS011;7351;51.194;4.098;2023-03-24T13:36:06;11.97;;;6.03;;
14528;SDS011;7351;51.194;4.098;2023-03-24T13:38:45;12.40;;;5.80;;
14528;SDS011;7351;51.194;4.098;2023-03-24T13:41:16;10.17;;;5.03;;
14528;SDS011;7351;51.194;4.098;2023-03-24T13:43:48;9.53;;;5.27;;
14528;SDS011;7351;51.194;4.098;2023-03-24T13:46:17;10.13;;;4.70;;
14528;SDS011;7351;51.194;4.098;2023-03-24T13:48:49;9.40;;;4.47;;
14528;SDS011;7351;51.194;4.098;2023-03-24T13:51:18;7.83;;;5.50;;
14528;SDS011;7351;51.194;4.098;2023-03-24T13:53:49;9.17;;;5.17;;
14528;SDS011;7351;51.194;4.098;2023-03-24T13:56:23;9.00;;;5.33;;
14528;SDS011;7351;51.194;4.098;2023-03-24T14:04:49;6.27;;;4.27;;
14528;SDS011;7351;51.194;4.098;2023-03-24T14:07:30;9.43;;;4.20;;
14528;SDS011;7351;51.194;4.098;2023-03-24T14:10:37;9.27;;;4.83;;
14528;SDS011;7351;51.194;4.098;2023-03-24T14:13:17;9.47;;;4.23;;
14528;SDS011;7351;51.194;4.098;2023-03-24T14:15:47;9.47;;;4.63;;
14528;SDS011;7351;51.194;4.098;2023-03-24T14:18:38;12.07;;;5.17;;
14528;SDS011;7351;51.194;4.098;2023-03-24T14:21:07;7.33;;;3.73;;
14528;SDS011;7351;51.194;4.098;2023-03-24T14:23:36;13.67;;;5.30;;
14528;SDS011;7351;51.194;4.098;2023-03-24T14:26:05;14.90;;;4.50;;
14528;SDS011;7351;51.194;4.098;2023-03-24T14:28:37;10.47;;;4.50;;
14528;SDS011;7351;51.194;4.098;2023-03-24T14:31:09;9.03;;;4.40;;
14528;SDS011;7351;51.194;4.098;2023-03-24T14:33:56;9.63;;;4.30;;
14528;SDS011;7351;51.194;4.098;2023-03-24T14:36:29;15.57;;;3.93;;
14528;SDS011;7351;51.194;4.098;2023-03-24T14:39:05;10.57;;;4.53;;
14528;SDS011;7351;51.194;4.098;2023-03-24T14:41:44;11.03;;;4.90;;
14528;SDS011;7351;51.194;4.098;2023-03-24T14:44:15;6.63;;;4.43;;
14528;SDS011;7351;51.194;4.098;2023-03-24T14:47:19;9.93;;;4.20;;
14528;SDS011;7351;51.194;4.098;2023-03-24T14:49:47;6.90;;;4.70;;
14528;SDS011;7351;51.194;4.098;2023-03-24T14:52:19;9.60;;;3.77;;
14528;SDS011;7351;51.194;4.098;2023-03-24T14:54:50;8.53;;;3.90;;
14528;SDS011;7351;51.194;4.098;2023-03-24T14:57:20;9.63;;;3.77;;
14528;SDS011;7351;51.194;4.098;2023-03-24T14:59:51;9.50;;;4.37;;
14528;SDS011;7351;51.194;4.098;2023-03-24T15:02:26;7.97;;;4.10;;
14528;SDS011;7351;51.194;4.098;2023-03-24T15:05:19;10.47;;;4.17;;
14528;SDS011;7351;51.194;4.098;2023-03-24T15:08:04;9.17;;;4.07;;
14528;SDS011;7351;51.194;4.098;2023-03-24T15:10:38;7.60;;;4.43;;
14528;SDS011;7351;51.194;4.098;2023-03-24T15:16:05;9.30;;;4.43;;
14528;SDS011;7351;51.194;4.098;2023-03-24T15:18:42;4.37;;;3.20;;
14528;SDS011;7351;51.194;4.098;2023-03-24T15:21:13;5.20;;;3.33;;
14528;SDS011;7351;51.194;4.098;2023-03-24T15:23:46;11.00;;;4.13;;
14528;SDS011;7351;51.194;4.098;2023-03-24T15:26:13;10.70;;;3.43;;
14528;SDS011;7351;51.194;4.098;2023-03-24T15:28:42;9.27;;;4.53;;
14528;SDS011;7351;51.194;4.098;2023-03-24T15:31:09;9.97;;;3.80;;
14528;SDS011;7351;51.194;4.098;2023-03-24T15:33:39;9.00;;;3.20;;
14528;SDS011;7351;51.194;4.098;2023-03-24T15:36:12;8.10;;;2.83;;
14528;SDS011;7351;51.194;4.098;2023-03-24T15:38:47;5.77;;;3.33;;
14528;SDS011;7351;51.194;4.098;2023-03-24T15:41:16;11.23;;;3.10;;
14528;SDS011;7351;51.194;4.098;2023-03-24T15:43:46;7.57;;;3.00;;
14528;SDS011;7351;51.194;4.098;2023-03-24T15:46:22;5.73;;;2.73;;
14528;SDS011;7351;51.194;4.098;2023-03-24T15:48:52;7.07;;;3.10;;
14528;SDS011;7351;51.194;4.098;2023-03-24T15:54:18;4.03;;;2.90;;
14528;SDS011;7351;51.194;4.098;2023-03-24T15:56:57;6.93;;;2.30;;